createdAt,value
2017-11-21T00:00:51.885Z,14.27
2017-11-21T00:03:18.050Z,14.30
2017-11-21T00:05:44.232Z,16.17
2017-11-21T00:08:10.345Z,17.70
2017-11-21T00:10:36.490Z,18.60
2017-11-21T00:13:02.605Z,21.07
2017-11-21T00:15:28.682Z,15.23
2017-11-21T00:17:54.859Z,15.07
2017-11-21T00:20:21.050Z,17.00
2017-11-21T00:22:47.235Z,16.60
2017-11-21T00:25:13.317Z,15.77
2017-11-21T00:27:39.642Z,15.20
2017-11-21T00:30:05.790Z,15.13
2017-11-21T00:32:31.912Z,13.03
2017-11-21T00:34:58.137Z,14.77
2017-11-21T00:37:24.284Z,14.17
2017-11-21T00:39:50.349Z,15.83
2017-11-21T00:42:16.477Z,17.13
2017-11-21T00:44:42.613Z,16.30
2017-11-21T00:47:08.765Z,13.43
2017-11-21T00:49:34.873Z,13.80
2017-11-21T00:52:00.971Z,14.27
2017-11-21T00:54:27.101Z,15.07
2017-11-21T00:56:53.158Z,15.00
2017-11-21T00:59:19.293Z,12.90
2017-11-21T01:01:45.399Z,13.93
2017-11-21T01:04:11.509Z,14.00
2017-11-21T01:06:37.682Z,12.10
2017-11-21T01:09:03.785Z,28.27
2017-11-21T01:11:29.917Z,93.83
2017-11-21T01:13:56.018Z,147.00
2017-11-21T01:16:22.144Z,122.40
2017-11-21T01:18:48.298Z,66.53
2017-11-21T01:21:14.405Z,34.40
2017-11-21T01:23:40.509Z,13.67
2017-11-21T01:26:06.661Z,15.40
2017-11-21T01:28:32.774Z,11.97
2017-11-21T01:30:58.850Z,12.43
2017-11-21T01:33:24.985Z,15.93
2017-11-21T01:35:51.073Z,27.43
2017-11-21T01:38:17.213Z,27.80
2017-11-21T01:40:43.367Z,31.27
2017-11-21T01:43:09.438Z,24.10
2017-11-21T01:45:35.557Z,18.17
2017-11-21T01:48:01.679Z,15.00
2017-11-21T01:50:27.827Z,12.13
2017-11-21T01:52:53.906Z,15.33
2017-11-21T01:55:19.933Z,15.90
2017-11-21T01:57:46.106Z,13.80
2017-11-21T02:00:12.158Z,17.77
2017-11-21T02:02:38.268Z,14.50
2017-11-21T02:05:04.506Z,15.43
2017-11-21T02:07:30.614Z,18.67
2017-11-21T02:09:56.731Z,16.27
2017-11-21T02:12:22.843Z,17.77
2017-11-21T02:14:49.005Z,17.07
2017-11-21T02:17:15.084Z,16.80
2017-11-21T02:19:41.184Z,17.17
2017-11-21T02:22:07.297Z,11.90
2017-11-21T02:24:33.350Z,17.63
2017-11-21T02:26:59.470Z,18.40
2017-11-21T02:29:25.545Z,14.20
2017-11-21T02:31:51.654Z,13.90
2017-11-21T02:34:17.742Z,12.30
2017-11-21T02:36:43.825Z,13.23
2017-11-21T02:39:10.017Z,15.80
2017-11-21T02:41:36.027Z,10.90
2017-11-21T02:44:02.118Z,13.30
2017-11-21T02:46:28.216Z,9.13
2017-11-21T02:48:54.361Z,9.80
2017-11-21T02:51:20.454Z,10.87
2017-11-21T02:53:46.530Z,14.83
2017-11-21T02:56:12.614Z,17.70
2017-11-21T02:58:38.668Z,14.60
2017-11-21T03:01:04.743Z,14.67
2017-11-21T03:03:30.921Z,16.53
2017-11-21T03:05:57.012Z,13.47
2017-11-21T03:08:23.121Z,19.30
2017-11-21T03:10:49.232Z,16.63
2017-11-21T03:13:15.321Z,22.10
2017-11-21T03:15:41.502Z,13.00
2017-11-21T03:18:07.629Z,12.37
2017-11-21T03:20:45.857Z,12.73
2017-11-21T03:23:24.149Z,11.00
2017-11-21T03:26:02.630Z,19.40
2017-11-21T03:28:35.938Z,12.53
2017-11-21T03:31:02.085Z,10.27
2017-11-21T03:33:28.190Z,14.93
2017-11-21T03:35:54.273Z,12.70
2017-11-21T03:38:20.411Z,16.00
2017-11-21T03:40:46.527Z,10.10
2017-11-21T03:43:12.687Z,13.70
2017-11-21T03:45:38.812Z,8.90
2017-11-21T03:48:04.903Z,8.70
2017-11-21T03:50:31.049Z,9.70
2017-11-21T03:52:57.133Z,8.10
2017-11-21T03:55:23.310Z,14.03
2017-11-21T03:57:49.438Z,8.10
2017-11-21T04:00:15.512Z,10.93
2017-11-21T04:02:41.711Z,7.87
2017-11-21T04:05:07.805Z,7.30
2017-11-21T04:07:33.954Z,6.83
2017-11-21T04:10:00.126Z,6.20
2017-11-21T04:12:26.276Z,8.13
2017-11-21T04:14:52.471Z,8.20
2017-11-21T04:17:18.581Z,6.80
2017-11-21T04:19:44.724Z,7.90
2017-11-21T04:22:10.862Z,7.27
2017-11-21T04:24:36.976Z,7.90
2017-11-21T04:27:03.069Z,7.00
2017-11-21T04:29:29.159Z,6.10
2017-11-21T04:31:55.365Z,6.90
2017-11-21T04:34:21.495Z,8.00
2017-11-21T04:36:47.582Z,6.20
2017-11-21T04:39:13.693Z,6.30
2017-11-21T04:41:39.774Z,5.57
2017-11-21T04:44:05.965Z,5.73
2017-11-21T04:46:32.134Z,5.60
2017-11-21T04:48:58.202Z,6.20
2017-11-21T04:51:24.321Z,5.70
2017-11-21T04:53:50.432Z,5.33
2017-11-21T04:56:16.591Z,7.27
2017-11-21T04:58:42.725Z,7.10
2017-11-21T05:01:08.842Z,5.77
2017-11-21T05:03:34.938Z,7.00
2017-11-21T05:06:01.046Z,5.87
2017-11-21T05:08:27.178Z,6.20
2017-11-21T05:10:53.332Z,5.43
2017-11-21T05:13:19.421Z,5.17
2017-11-21T05:15:45.544Z,4.57
2017-11-21T05:18:11.701Z,4.70
2017-11-21T05:20:37.877Z,4.70
2017-11-21T05:23:04.052Z,3.50
2017-11-21T05:25:30.203Z,3.90
2017-11-21T05:27:56.377Z,4.10
2017-11-21T05:30:22.473Z,3.60
2017-11-21T05:33:00.608Z,3.10
2017-11-21T05:35:26.827Z,2.50
2017-11-21T05:37:52.939Z,2.87
2017-11-21T05:40:19.095Z,3.23
2017-11-21T05:42:45.213Z,5.63
2017-11-21T05:45:11.346Z,3.50
2017-11-21T05:47:37.499Z,2.87
2017-11-21T05:50:03.734Z,3.00
2017-11-21T05:52:29.874Z,3.37
2017-11-21T05:54:56.022Z,3.87
2017-11-21T05:57:22.143Z,4.27
2017-11-21T05:59:48.301Z,3.73
2017-11-21T06:02:14.468Z,2.50
2017-11-21T06:04:40.581Z,2.87
2017-11-21T06:07:06.709Z,2.67
2017-11-21T06:09:32.805Z,3.00
2017-11-21T06:11:58.893Z,6.20
2017-11-21T06:14:25.030Z,4.90
2017-11-21T06:16:51.162Z,4.53
2017-11-21T06:19:17.273Z,4.43
2017-11-21T06:21:43.384Z,4.77
2017-11-21T06:24:09.501Z,4.03
2017-11-21T06:26:35.625Z,3.67
2017-11-21T06:29:01.790Z,3.60
2017-11-21T06:31:27.910Z,4.93
2017-11-21T06:33:54.033Z,4.97
2017-11-21T06:36:20.132Z,4.83
2017-11-21T06:38:46.242Z,4.80
2017-11-21T06:41:12.341Z,4.53
2017-11-21T06:43:38.513Z,5.70
2017-11-21T06:46:04.657Z,3.80
2017-11-21T06:48:30.893Z,7.67
2017-11-21T06:50:56.969Z,4.80
2017-11-21T06:53:23.086Z,4.67
2017-11-21T06:55:49.252Z,5.20
2017-11-21T06:58:15.338Z,4.70
2017-11-21T07:00:41.414Z,5.50
2017-11-21T07:03:07.512Z,5.57
2017-11-21T07:05:33.706Z,5.60
2017-11-21T07:07:59.871Z,5.60
2017-11-21T07:10:25.918Z,5.23
2017-11-21T07:12:52.048Z,4.67
2017-11-21T07:15:18.249Z,4.90
2017-11-21T07:17:44.406Z,4.47
2017-11-21T07:20:10.520Z,4.20
2017-11-21T07:22:36.643Z,4.17
2017-11-21T07:25:02.805Z,6.03
2017-11-21T07:27:28.926Z,4.87
2017-11-21T07:29:55.054Z,6.07
2017-11-21T07:32:21.166Z,5.33
2017-11-21T07:34:47.273Z,4.50
2017-11-21T07:37:13.448Z,5.33
2017-11-21T07:39:39.576Z,5.10
2017-11-21T07:42:05.735Z,5.47
2017-11-21T07:44:32.262Z,4.03
2017-11-21T07:46:58.365Z,4.23
2017-11-21T07:49:24.491Z,4.83
2017-11-21T07:51:50.653Z,3.90
2017-11-21T07:54:16.812Z,5.50
2017-11-21T07:56:42.913Z,5.03
2017-11-21T07:59:09.009Z,4.93
2017-11-21T08:01:35.138Z,4.27
2017-11-21T08:04:01.258Z,4.43
2017-11-21T08:06:27.391Z,5.80
2017-11-21T08:08:53.505Z,2.90
2017-11-21T08:11:19.597Z,4.10
2017-11-21T08:13:45.737Z,4.10
2017-11-21T08:16:11.877Z,4.30
2017-11-21T08:18:38.058Z,3.90
2017-11-21T08:21:04.227Z,4.53
2017-11-21T08:23:30.326Z,4.13
2017-11-21T08:25:56.466Z,3.50
2017-11-21T08:28:22.605Z,3.00
2017-11-21T08:30:48.783Z,4.37
2017-11-21T08:33:14.913Z,4.00
2017-11-21T08:35:41.018Z,5.23
2017-11-21T08:38:07.127Z,3.57
2017-11-21T08:40:33.285Z,5.20
2017-11-21T08:42:59.286Z,2.90
2017-11-21T08:45:25.417Z,5.00
2017-11-21T08:47:51.549Z,2.50
2017-11-21T08:50:17.662Z,3.97
2017-11-21T08:52:43.829Z,2.53
2017-11-21T08:55:09.923Z,3.63
2017-11-21T08:57:36.035Z,4.10
2017-11-21T09:00:02.124Z,3.40
2017-11-21T09:02:28.248Z,3.60
2017-11-21T09:04:54.362Z,3.80
2017-11-21T09:07:20.559Z,4.00
2017-11-21T09:09:46.686Z,4.67
2017-11-21T09:12:13.338Z,4.07
2017-11-21T09:14:39.442Z,7.53
2017-11-21T09:17:05.545Z,3.23
2017-11-21T09:19:31.701Z,4.27
2017-11-21T09:21:57.803Z,6.40
2017-11-21T09:24:23.924Z,3.90
2017-11-21T09:26:50.014Z,6.00
2017-11-21T09:29:16.132Z,5.87
2017-11-21T09:31:42.263Z,9.10
2017-11-21T09:34:08.401Z,5.30
2017-11-21T09:36:34.522Z,6.33
2017-11-21T09:39:00.653Z,6.13
2017-11-21T09:41:26.785Z,6.73
2017-11-21T09:43:52.896Z,7.00
2017-11-21T09:46:19.077Z,6.03
2017-11-21T09:48:45.193Z,8.43
2017-11-21T09:51:11.242Z,5.13
2017-11-21T09:53:37.393Z,8.13
2017-11-21T09:56:03.508Z,6.30
2017-11-21T09:58:29.672Z,8.03
2017-11-21T10:00:55.777Z,4.83
2017-11-21T10:03:21.893Z,5.00
2017-11-21T10:05:48.010Z,5.30
2017-11-21T10:08:14.143Z,5.43
2017-11-21T10:10:40.330Z,3.30
2017-11-21T10:13:06.454Z,5.60
2017-11-21T10:15:32.531Z,3.03
2017-11-21T10:17:58.641Z,5.70
2017-11-21T10:20:24.743Z,6.10
2017-11-21T10:22:50.896Z,4.43
2017-11-21T10:25:17.002Z,6.00
2017-11-21T10:27:43.060Z,4.90
2017-11-21T10:30:09.173Z,5.40
2017-11-21T10:32:35.256Z,4.47
2017-11-21T10:35:01.419Z,5.07
2017-11-21T10:37:27.493Z,4.50
2017-11-21T10:39:53.584Z,5.33
2017-11-21T10:42:19.674Z,4.37
2017-11-21T10:44:45.741Z,4.33
2017-11-21T10:47:11.865Z,7.63
2017-11-21T10:49:37.960Z,6.37
2017-11-21T10:52:04.052Z,5.40
2017-11-21T10:54:30.161Z,9.07
2017-11-21T10:56:56.281Z,106.10
2017-11-21T10:59:22.415Z,253.60
2017-11-21T11:01:48.569Z,307.53
2017-11-21T11:04:14.628Z,193.13
2017-11-21T11:06:40.799Z,183.70
2017-11-21T11:09:06.989Z,63.57
2017-11-21T11:11:33.146Z,48.10
2017-11-21T11:13:59.241Z,10.57
2017-11-21T11:16:25.308Z,16.17
2017-11-21T11:18:51.382Z,8.87
2017-11-21T11:21:17.522Z,6.00
2017-11-21T11:23:43.573Z,5.00
2017-11-21T11:26:09.686Z,3.57
2017-11-21T11:28:35.770Z,3.20
2017-11-21T11:31:01.829Z,4.73
2017-11-21T11:33:27.915Z,3.00
2017-11-21T11:35:54.005Z,5.00
2017-11-21T11:38:20.119Z,3.30
2017-11-21T11:40:46.165Z,4.60
2017-11-21T11:43:12.310Z,3.53
2017-11-21T11:45:38.478Z,2.53
2017-11-21T11:48:04.564Z,3.00
2017-11-21T11:50:30.714Z,2.27
2017-11-21T11:52:56.856Z,2.97
2017-11-21T11:55:22.915Z,4.83
2017-11-21T11:57:49.028Z,3.03
2017-11-21T12:00:15.156Z,6.07
2017-11-21T12:02:41.221Z,2.30
2017-11-21T12:05:07.325Z,3.60
2017-11-21T12:07:33.431Z,2.40
2017-11-21T12:09:59.509Z,3.27
2017-11-21T12:12:25.638Z,2.23
2017-11-21T12:14:51.729Z,2.67
2017-11-21T12:17:17.821Z,3.67
2017-11-21T12:19:43.968Z,3.93
2017-11-21T12:22:10.029Z,1.93
2017-11-21T12:24:36.097Z,2.90
2017-11-21T12:27:02.207Z,1.77
2017-11-21T12:29:28.273Z,2.00
2017-11-21T12:31:54.346Z,1.60
2017-11-21T12:34:20.521Z,2.20
2017-11-21T12:36:46.594Z,1.80
2017-11-21T12:39:12.706Z,2.07
2017-11-21T12:41:38.874Z,3.07
2017-11-21T12:44:04.997Z,2.00
2017-11-21T12:46:31.155Z,1.87
2017-11-21T12:48:57.270Z,3.57
2017-11-21T12:51:23.369Z,1.50
2017-11-21T12:53:49.493Z,2.30
2017-11-21T12:56:15.582Z,1.87
2017-11-21T12:58:41.654Z,1.67
2017-11-21T13:01:07.742Z,2.53
2017-11-21T13:03:33.825Z,2.20
2017-11-21T13:05:59.948Z,2.27
2017-11-21T13:08:26.023Z,3.07
2017-11-21T13:10:52.123Z,2.43
2017-11-21T13:13:18.218Z,2.33
2017-11-21T13:15:44.281Z,2.10
2017-11-21T13:18:10.417Z,2.90
2017-11-21T13:20:36.494Z,3.37
2017-11-21T13:23:02.696Z,1.83
2017-11-21T13:25:28.740Z,1.97
2017-11-21T13:27:54.889Z,2.03
2017-11-21T13:30:21.060Z,1.97
2017-11-21T13:32:47.149Z,1.77
2017-11-21T13:35:13.246Z,2.47
2017-11-21T13:37:39.349Z,2.47
2017-11-21T13:40:05.511Z,2.10
2017-11-21T13:42:31.627Z,2.47
2017-11-21T13:44:57.681Z,3.57
2017-11-21T13:47:23.773Z,3.03
2017-11-21T13:49:49.875Z,2.70
2017-11-21T13:52:16.030Z,3.03
2017-11-21T13:54:42.193Z,3.17
2017-11-21T13:57:08.301Z,2.67
2017-11-21T13:59:34.476Z,2.93
2017-11-21T14:02:00.645Z,2.93
2017-11-21T14:04:26.751Z,3.43
2017-11-21T14:06:52.970Z,2.50
2017-11-21T14:09:19.053Z,4.87
2017-11-21T14:11:45.177Z,3.83
2017-11-21T14:14:11.418Z,3.27
2017-11-21T14:16:37.478Z,3.20
2017-11-21T14:19:03.540Z,3.60
2017-11-21T14:21:29.635Z,3.60
2017-11-21T14:23:55.721Z,2.70
2017-11-21T14:26:21.834Z,4.43
2017-11-21T14:28:47.966Z,3.73
2017-11-21T14:31:14.084Z,4.40
2017-11-21T14:33:40.151Z,3.53
2017-11-21T14:36:06.245Z,3.20
2017-11-21T14:38:32.327Z,2.90
2017-11-21T14:40:58.454Z,3.50
2017-11-21T14:43:25.608Z,2.73
2017-11-21T14:45:51.961Z,2.00
2017-11-21T14:48:18.102Z,2.57
2017-11-21T14:50:44.236Z,3.00
2017-11-21T14:53:10.420Z,3.10
2017-11-21T14:55:36.520Z,2.43
2017-11-21T14:58:02.726Z,3.10
2017-11-21T15:00:28.833Z,5.00
2017-11-21T15:02:55.036Z,3.80
2017-11-21T15:05:21.162Z,4.23
2017-11-21T15:07:47.294Z,2.90
2017-11-21T15:10:13.414Z,3.50
2017-11-21T15:12:39.525Z,2.97
2017-11-21T15:15:05.586Z,2.47
2017-11-21T15:17:31.677Z,2.80
2017-11-21T15:19:57.926Z,3.80
2017-11-21T15:22:24.061Z,5.00
2017-11-21T15:24:50.261Z,3.17
2017-11-21T15:27:16.486Z,3.37
2017-11-21T15:29:42.706Z,3.30
2017-11-21T15:32:08.893Z,4.10
2017-11-21T15:34:34.977Z,3.00
2017-11-21T15:37:01.087Z,4.10
2017-11-21T15:39:27.314Z,3.80
2017-11-21T15:41:53.477Z,3.73
2017-11-21T15:44:20.381Z,3.80
2017-11-21T15:46:46.566Z,3.10
2017-11-21T15:49:12.688Z,3.37
2017-11-21T15:51:39.049Z,2.97
2017-11-21T15:54:05.207Z,3.17
2017-11-21T15:56:31.401Z,3.57
2017-11-21T15:58:57.548Z,2.80
2017-11-21T16:01:23.684Z,2.83
2017-11-21T16:03:49.805Z,2.73
2017-11-21T16:06:15.965Z,3.07
2017-11-21T16:08:42.240Z,8.33
2017-11-21T16:11:08.374Z,2.93
2017-11-21T16:13:34.493Z,4.17
2017-11-21T16:16:00.693Z,3.73
2017-11-21T16:18:26.879Z,6.47
2017-11-21T16:20:53.151Z,7.53
2017-11-21T16:23:19.261Z,8.07
2017-11-21T16:25:45.368Z,4.13
2017-11-21T16:28:11.540Z,2.93
2017-11-21T16:30:37.647Z,3.03
2017-11-21T16:33:03.818Z,2.40
2017-11-21T16:35:29.985Z,3.07
2017-11-21T16:37:56.130Z,5.63
2017-11-21T16:40:22.366Z,5.53
2017-11-21T16:42:48.544Z,6.23
2017-11-21T16:45:14.657Z,5.33
2017-11-21T16:47:40.921Z,4.90
2017-11-21T16:50:07.083Z,3.73
2017-11-21T16:52:33.269Z,4.90
2017-11-21T16:54:59.413Z,2.90
2017-11-21T16:57:25.533Z,3.93
2017-11-21T16:59:51.679Z,2.60
2017-11-21T17:02:18.649Z,3.00
2017-11-21T17:04:44.760Z,3.90
2017-11-21T17:07:10.976Z,2.20
2017-11-21T17:09:37.148Z,3.10
2017-11-21T17:12:03.379Z,3.73
2017-11-21T17:14:29.576Z,2.33
2017-11-21T17:16:55.702Z,3.07
2017-11-21T17:19:21.837Z,4.20
2017-11-21T17:21:47.950Z,4.03
2017-11-21T17:24:14.127Z,8.37
2017-11-21T17:26:40.258Z,46.93
2017-11-21T17:29:06.366Z,7.57
2017-11-21T17:31:32.626Z,3.40
2017-11-21T17:33:58.796Z,8.10
2017-11-21T17:36:25.033Z,11.80
2017-11-21T17:38:51.274Z,6.47
2017-11-21T17:41:17.435Z,6.13
2017-11-21T17:43:43.608Z,5.10
2017-11-21T17:46:09.794Z,6.20
2017-11-21T17:48:35.928Z,4.50
2017-11-21T17:51:02.078Z,5.17
2017-11-21T17:53:28.197Z,5.23
2017-11-21T17:55:54.374Z,6.53
2017-11-21T17:58:20.501Z,7.33
2017-11-21T18:00:46.654Z,7.67
2017-11-21T18:03:12.882Z,8.37
2017-11-21T18:05:39.027Z,8.60
2017-11-21T18:08:05.108Z,10.90
2017-11-21T18:10:31.238Z,13.50
2017-11-21T18:12:57.436Z,10.47
2017-11-21T18:15:23.593Z,11.60
2017-11-21T18:17:49.737Z,11.20
2017-11-21T18:20:15.942Z,8.33
2017-11-21T18:22:42.114Z,13.50
2017-11-21T18:25:08.288Z,11.67
2017-11-21T18:27:34.516Z,11.80
2017-11-21T18:30:00.670Z,13.70
2017-11-21T18:32:26.846Z,13.27
2017-11-21T18:34:53.030Z,13.57
2017-11-21T18:37:19.187Z,12.60
2017-11-21T18:39:45.366Z,11.20
2017-11-21T18:42:11.563Z,11.93
2017-11-21T18:44:37.709Z,12.00
2017-11-21T18:47:03.892Z,11.30
2017-11-21T18:49:30.026Z,12.20
2017-11-21T18:51:56.243Z,10.60
2017-11-21T18:54:22.392Z,10.73
2017-11-21T18:56:48.609Z,8.43
2017-11-21T18:59:14.796Z,11.50
2017-11-21T19:01:41.015Z,10.90
2017-11-21T19:04:07.171Z,9.90
2017-11-21T19:06:33.767Z,9.47
2017-11-21T19:08:59.955Z,8.77
2017-11-21T19:11:26.428Z,10.70
2017-11-21T19:13:52.663Z,10.30
2017-11-21T19:16:19.834Z,9.80
2017-11-21T19:18:46.069Z,8.70
2017-11-21T19:21:12.400Z,10.70
2017-11-21T19:23:38.717Z,7.70
2017-11-21T19:26:04.902Z,14.33
2017-11-21T19:28:31.188Z,17.30
2017-11-21T19:30:57.607Z,15.00
2017-11-21T19:33:23.931Z,9.57
2017-11-21T19:35:50.291Z,10.47
2017-11-21T19:38:16.606Z,10.80
2017-11-21T19:40:42.917Z,10.83
2017-11-21T19:43:09.315Z,14.30
2017-11-21T19:45:35.659Z,13.03
2017-11-21T19:48:02.030Z,13.00
2017-11-21T19:50:28.542Z,10.83
2017-11-21T19:52:54.962Z,10.50
2017-11-21T19:55:21.316Z,10.77
2017-11-21T19:57:48.711Z,11.90
2017-11-21T20:00:15.077Z,11.60
2017-11-21T20:02:41.463Z,10.40
2017-11-21T20:05:08.209Z,11.30
2017-11-21T20:07:34.554Z,10.70
2017-11-21T20:10:01.289Z,12.53
2017-11-21T20:12:27.650Z,14.37
2017-11-21T20:14:54.169Z,14.30
2017-11-21T20:17:21.314Z,13.60
2017-11-21T20:19:47.637Z,12.80
2017-11-21T20:22:14.080Z,12.20
2017-11-21T20:24:40.429Z,18.20
2017-11-21T20:27:07.716Z,11.27
2017-11-21T20:29:34.968Z,17.03
2017-11-21T20:32:01.401Z,13.20
2017-11-21T20:34:27.832Z,15.50
2017-11-21T20:36:54.211Z,12.80
2017-11-21T20:39:20.659Z,14.50
2017-11-21T20:41:47.084Z,13.23
2017-11-21T20:44:13.469Z,13.10
2017-11-21T20:46:39.829Z,14.77
2017-11-21T20:49:07.271Z,14.03
2017-11-21T20:51:33.981Z,11.40
2017-11-21T20:54:00.342Z,15.27
2017-11-21T20:56:27.896Z,19.70
2017-11-21T20:58:54.330Z,15.97
2017-11-21T21:01:22.481Z,22.03
2017-11-21T21:03:48.860Z,16.57
2017-11-21T21:06:15.255Z,15.13
2017-11-21T21:08:41.675Z,11.50
2017-11-21T21:11:08.156Z,14.47
2017-11-21T21:13:34.572Z,12.10
2017-11-21T21:16:00.919Z,11.67
2017-11-21T21:18:27.260Z,12.40
2017-11-21T21:20:53.641Z,14.80
2017-11-21T21:23:20.005Z,14.13
2017-11-21T21:25:46.419Z,12.63
2017-11-21T21:28:15.585Z,11.07
2017-11-21T21:30:41.894Z,10.37
2017-11-21T21:33:08.215Z,16.10
2017-11-21T21:35:34.496Z,17.47
2017-11-21T21:38:00.708Z,14.53
2017-11-21T21:40:27.005Z,16.03
2017-11-21T21:42:53.172Z,15.03
2017-11-21T21:45:19.379Z,13.30
2017-11-21T21:47:45.564Z,13.20
2017-11-21T21:50:11.659Z,16.97
2017-11-21T21:52:37.827Z,19.00
2017-11-21T21:55:04.043Z,19.60
2017-11-21T21:57:30.188Z,12.60
2017-11-21T21:59:56.522Z,16.63
2017-11-21T22:02:22.649Z,13.17
2017-11-21T22:04:48.742Z,12.60
2017-11-21T22:07:14.971Z,13.70
2017-11-21T22:09:41.105Z,13.43
2017-11-21T22:12:07.300Z,11.23
2017-11-21T22:14:33.428Z,10.60
2017-11-21T22:16:59.526Z,15.67
2017-11-21T22:19:25.654Z,14.27
2017-11-21T22:21:51.789Z,11.93
2017-11-21T22:24:17.949Z,12.53
2017-11-21T22:26:44.058Z,10.10
2017-11-21T22:29:10.161Z,11.07
2017-11-21T22:31:36.289Z,12.70
2017-11-21T22:34:02.393Z,8.90
2017-11-21T22:36:28.485Z,11.83
2017-11-21T22:38:54.636Z,13.20
2017-11-21T22:41:20.770Z,11.40
2017-11-21T22:43:46.882Z,9.63
2017-11-21T22:46:13.024Z,6.30
2017-11-21T22:48:39.225Z,12.10
2017-11-21T22:51:05.385Z,14.30
2017-11-21T22:53:31.593Z,10.70
2017-11-21T22:55:57.650Z,7.93
2017-11-21T22:58:23.833Z,11.03
2017-11-21T23:00:50.029Z,16.33
2017-11-21T23:03:16.151Z,10.23
2017-11-21T23:05:42.254Z,10.93
2017-11-21T23:08:08.325Z,12.57
2017-11-21T23:10:34.436Z,11.17
2017-11-21T23:13:00.561Z,11.53
2017-11-21T23:15:26.696Z,12.47
2017-11-21T23:17:52.832Z,10.10
2017-11-21T23:20:18.970Z,18.33
2017-11-21T23:22:45.038Z,10.40
2017-11-21T23:25:11.177Z,11.80
2017-11-21T23:27:38.238Z,10.67
2017-11-21T23:30:04.455Z,9.43
2017-11-21T23:32:30.600Z,11.70
2017-11-21T23:34:56.709Z,13.53
2017-11-21T23:37:22.862Z,9.80
2017-11-21T23:39:49.014Z,14.20
2017-11-21T23:42:15.117Z,11.53
2017-11-21T23:44:41.280Z,11.57
2017-11-21T23:47:07.391Z,13.80
2017-11-21T23:49:33.546Z,10.80
2017-11-21T23:51:59.625Z,10.60
2017-11-21T23:54:25.794Z,15.83
2017-11-21T23:56:51.963Z,9.50
2017-11-21T23:59:18.046Z,15.43
